Linn, Kansas
Current Conditions -  °F | °C
As of 12:35 AM on Friday 19 Dec 2014 (Local Time) from KMYZ Reporting Station
Overcast Overcast  
Wind Chill: 30°   Ceiling: 1000
Heat Index: 30°   Visibility: 10mi
Dew Point: 28°   Wind: 3mph
Humidity: 93%   Direction: 270°W
Pressure: 30.24"   Gusts: NA
Location:  39.68°N, 97.08°W
Report Text: KMYZ 190635Z AUTO 27003KT 10SM OVC010 M01/M02 A3024 RMK AO2
Loading
Personal Weather Stations






























Interactive Weather Map New forecast layout! Learn more

10-Day Weather Forecast

Advertisements
Track Severe Weather on mobile